Time;durP1;ratioP1;P1;durP2;ratioP2;P2;SDS_P1;SDS_P2;PMS_P1;PMS_P2;Temp;Humidity;BMP_temperature;BMP_pressure;BME280_temperature;BME280_humidity;BME280_pressure;Samples;Min_cycle;Max_cycle;Signal;HPM_P1;HPM_P2
2021/05/15 00:02:23;;;;;;;4.80;3.40;;;16.70;69.50;;;;;;5138565;27;20051;-38
2021/05/15 00:04:48;;;;;;;6.03;3.20;;;16.70;69.20;;;;;;5138705;27;20030;-38
2021/05/15 00:07:14;;;;;;;6.13;3.35;;;16.60;69.20;;;;;;5137828;27;20083;-38
2021/05/15 00:09:40;;;;;;;4.65;3.35;;;16.60;69.50;;;;;;5138532;27;20027;-38
2021/05/15 00:12:06;;;;;;;4.38;3.20;;;16.60;69.60;;;;;;5138222;27;20031;-38
2021/05/15 00:14:33;;;;;;;6.28;3.42;;;16.50;70.00;;;;;;5138467;27;20047;-38
2021/05/15 00:16:59;;;;;;;9.77;3.85;;;16.40;70.10;;;;;;5138502;27;20031;-38
2021/05/15 00:19:25;;;;;;;8.18;3.80;;;16.40;70.40;;;;;;5138242;27;20019;-38
2021/05/15 00:21:51;;;;;;;5.47;3.85;;;16.30;70.70;;;;;;5138192;27;20031;-38
2021/05/15 00:24:16;;;;;;;6.55;3.50;;;16.30;70.90;;;;;;5138423;27;20015;-38
2021/05/15 00:26:42;;;;;;;6.03;3.65;;;16.20;71.00;;;;;;5138070;27;20027;-38
2021/05/15 00:29:09;;;;;;;6.63;3.83;;;16.20;71.40;;;;;;5138270;27;20161;-38
2021/05/15 00:31:35;;;;;;;12.27;4.03;;;16.10;71.60;;;;;;5137893;27;20475;-38
2021/05/15 00:34:01;;;;;;;7.63;3.83;;;16.10;71.80;;;;;;5138038;27;20407;-38
2021/05/15 00:36:26;;;;;;;6.60;3.88;;;16.00;72.00;;;;;;5137744;27;20031;-38
2021/05/15 00:38:52;;;;;;;7.07;3.70;;;16.00;72.20;;;;;;5137798;27;20061;-38
2021/05/15 00:41:19;;;;;;;5.97;4.40;;;15.90;72.20;;;;;;5137509;27;20062;-38
2021/05/15 00:43:57;;;;;;;7.63;4.40;;;15.90;72.60;;;;;;5137813;27;20433;-38
2021/05/15 00:46:26;;;;;;;10.15;4.35;;;15.90;72.90;;;;;;5138094;27;20084;-38
2021/05/15 00:48:51;;;;;;;7.72;4.63;;;15.80;73.10;;;;;;5137733;27;20034;-38
2021/05/15 00:51:17;;;;;;;7.97;4.28;;;15.80;73.20;;;;;;5137912;27;20023;-38
2021/05/15 00:53:43;;;;;;;7.05;3.80;;;15.70;73.30;;;;;;5137856;27;20102;-38
2021/05/15 00:56:09;;;;;;;5.18;4.25;;;15.70;73.50;;;;;;5137923;27;20057;-38
2021/05/15 00:58:35;;;;;;;12.10;4.93;;;15.70;73.60;;;;;;5137531;27;20050;-38
2021/05/15 01:01:01;;;;;;;8.52;4.40;;;15.60;73.90;;;;;;5137159;27;20031;-38
2021/05/15 01:03:26;;;;;;;6.38;4.55;;;15.60;74.70;;;;;;5137668;27;20360;-38
2021/05/15 01:05:52;;;;;;;9.93;4.90;;;15.50;74.20;;;;;;5137939;27;20031;-39
2021/05/15 01:08:20;;;;;;;10.95;5.40;;;15.50;74.30;;;;;;5136980;27;20027;-38
2021/05/15 01:10:46;;;;;;;9.65;5.38;;;15.50;74.50;;;;;;5137781;27;20056;-38
2021/05/15 01:13:13;;;;;;;8.50;5.07;;;15.50;74.80;;;;;;5137009;27;20028;-38
2021/05/15 01:15:39;;;;;;;10.15;5.15;;;15.40;74.90;;;;;;5137205;27;20114;-38
2021/05/15 01:18:05;;;;;;;6.15;5.00;;;15.40;75.10;;;;;;5136070;27;20024;-38
2021/05/15 01:20:32;;;;;;;7.75;5.13;;;15.30;75.30;;;;;;5137270;27;20035;-38
2021/05/15 01:22:59;;;;;;;7.93;5.10;;;15.30;75.50;;;;;;5136768;27;20095;-39
2021/05/15 01:25:25;;;;;;;7.63;5.20;;;15.20;75.70;;;;;;5137387;27;20035;-38
2021/05/15 01:27:51;;;;;;;8.35;5.45;;;15.20;75.90;;;;;;5136647;27;20026;-38
2021/05/15 01:30:18;;;;;;;6.63;5.15;;;15.10;76.00;;;;;;5137140;27;20032;-38
2021/05/15 01:32:45;;;;;;;9.63;5.72;;;15.10;76.20;;;;;;5137021;27;20026;-38
2021/05/15 01:35:14;;;;;;;7.05;5.70;;;15.10;76.40;;;;;;5137058;27;20034;-38
2021/05/15 01:37:39;;;;;;;10.35;5.40;;;15.00;76.50;;;;;;5136434;27;20043;-38
2021/05/15 01:40:07;;;;;;;6.72;5.20;;;15.00;76.50;;;;;;5137221;27;20035;-38
2021/05/15 01:42:33;;;;;;;7.53;5.18;;;15.00;76.70;;;;;;5136390;27;20033;-38
2021/05/15 01:45:00;;;;;;;7.88;5.32;;;15.00;76.70;;;;;;5136727;27;20112;-38
2021/05/15 01:47:26;;;;;;;10.32;6.70;;;14.90;76.90;;;;;;5136395;27;20467;-41
2021/05/15 01:49:52;;;;;;;7.72;5.43;;;14.90;77.20;;;;;;5137007;27;20040;-38
2021/05/15 01:52:18;;;;;;;10.90;5.97;;;14.90;77.40;;;;;;5136393;27;20326;-38
2021/05/15 01:54:43;;;;;;;7.60;5.65;;;14.90;77.30;;;;;;5136737;27;20106;-38
2021/05/15 01:57:10;;;;;;;13.55;5.85;;;14.80;77.50;;;;;;5136353;27;20031;-41
2021/05/15 01:59:38;;;;;;;9.52;5.70;;;14.80;77.50;;;;;;5136901;28;20036;-39
2021/05/15 02:02:04;;;;;;;11.80;6.65;;;14.70;77.70;;;;;;5136244;28;20410;-38
2021/05/15 02:04:29;;;;;;;9.40;5.53;;;14.70;78.00;;;;;;5136815;28;20083;-42
2021/05/15 02:06:58;;;;;;;9.63;6.45;;;14.70;78.10;;;;;;5136430;28;20023;-41
2021/05/15 02:09:24;;;;;;;8.38;5.82;;;14.60;78.40;;;;;;5136800;28;20015;-39
2021/05/15 02:11:50;;;;;;;10.45;6.38;;;14.60;78.70;;;;;;5136526;28;20149;-39
2021/05/15 02:14:16;;;;;;;12.68;6.65;;;14.60;79.00;;;;;;5136498;28;20030;-38
2021/05/15 02:16:42;;;;;;;9.00;6.50;;;14.60;79.10;;;;;;5136255;28;20059;-39
2021/05/15 02:19:08;;;;;;;10.52;7.03;;;14.50;79.20;;;;;;5136377;28;20104;-38
2021/05/15 02:21:33;;;;;;;10.43;7.10;;;14.50;79.40;;;;;;5136579;28;20126;-39
2021/05/15 02:23:59;;;;;;;12.93;6.90;;;14.50;79.50;;;;;;5136418;28;20030;-39
2021/05/15 02:26:25;;;;;;;7.57;6.00;;;14.50;79.50;;;;;;5135986;28;20031;-38
2021/05/15 02:28:51;;;;;;;12.73;6.28;;;14.50;79.60;;;;;;5137461;27;20059;-38
2021/05/15 02:31:16;;;;;;;10.57;7.63;;;14.40;79.70;;;;;;5140680;27;20063;-38
2021/05/15 02:33:42;;;;;;;12.38;7.57;;;14.40;79.90;;;;;;5140396;27;20027;-38
2021/05/15 02:36:08;;;;;;;15.48;7.22;;;14.40;80.10;;;;;;5140432;27;20081;-38
2021/05/15 02:38:34;;;;;;;11.75;7.07;;;14.40;80.30;;;;;;5140244;27;20130;-38
2021/05/15 02:41:00;;;;;;;10.23;7.05;;;14.40;80.30;;;;;;5140396;27;20461;-38
2021/05/15 02:43:26;;;;;;;9.27;7.43;;;14.40;80.50;;;;;;5140215;27;20028;-38
2021/05/15 02:45:51;;;;;;;13.65;7.20;;;14.30;80.50;;;;;;5140595;27;20445;-38
2021/05/15 02:48:17;;;;;;;10.57;7.82;;;14.30;80.80;;;;;;5139788;27;20026;-38
2021/05/15 02:50:45;;;;;;;12.52;8.48;;;14.30;80.90;;;;;;5140345;27;20027;-38
2021/05/15 02:53:11;;;;;;;10.23;7.32;;;14.40;81.20;;;;;;5139966;27;20031;-38
2021/05/15 02:55:37;;;;;;;14.60;8.05;;;14.30;81.10;;;;;;5140327;27;20027;-38
2021/05/15 02:58:02;;;;;;;12.77;7.80;;;14.30;81.30;;;;;;5140365;27;20111;-38
2021/05/15 03:00:28;;;;;;;10.55;7.20;;;14.40;81.50;;;;;;5139944;27;20054;-38
2021/05/15 03:02:55;;;;;;;10.90;7.80;;;14.40;81.50;;;;;;5139806;27;20031;-38
2021/05/15 03:05:23;;;;;;;12.57;8.27;;;14.30;81.70;;;;;;5140203;27;20039;-38
2021/05/15 03:07:49;;;;;;;11.57;7.88;;;14.40;81.70;;;;;;5139921;27;20037;-38
2021/05/15 03:10:15;;;;;;;13.90;8.45;;;14.40;81.80;;;;;;5139659;27;20023;-38
2021/05/15 03:12:41;;;;;;;14.68;7.57;;;14.40;81.90;;;;;;5139769;27;20597;-38
2021/05/15 03:15:11;;;;;;;13.52;7.78;;;14.40;81.90;;;;;;5139762;27;20413;-38
2021/05/15 03:17:40;;;;;;;14.25;9.20;;;14.40;82.00;;;;;;5139717;27;20034;-38
2021/05/15 03:20:08;;;;;;;11.90;8.00;;;14.40;81.90;;;;;;5139327;27;20034;-38
2021/05/15 03:22:34;;;;;;;12.82;7.70;;;14.40;81.90;;;;;;5139323;27;20027;-38
2021/05/15 03:24:59;;;;;;;14.55;7.88;;;14.50;81.90;;;;;;5139399;27;20107;-38
2021/05/15 03:27:25;;;;;;;13.50;7.93;;;14.50;82.00;;;;;;5139337;27;20030;-38
2021/05/15 03:29:51;;;;;;;12.52;7.93;;;14.50;82.00;;;;;;5139472;27;20023;-38
2021/05/15 03:32:17;;;;;;;13.05;7.75;;;14.40;82.00;;;;;;5120783;27;20027;-38
2021/05/15 03:34:42;;;;;;;15.63;7.93;;;14.50;82.00;;;;;;5139490;27;20055;-38
2021/05/15 03:37:08;;;;;;;13.20;9.27;;;14.50;82.10;;;;;;5138921;27;20086;-38
2021/05/15 03:39:34;;;;;;;13.13;8.35;;;14.50;82.10;;;;;;5138976;27;20431;-38
2021/05/15 03:42:00;;;;;;;13.93;7.53;;;14.50;82.10;;;;;;5137899;27;20023;-38
2021/05/15 03:44:25;;;;;;;10.05;8.18;;;14.60;82.00;;;;;;5139250;27;20028;-38
2021/05/15 03:46:51;;;;;;;14.55;8.63;;;14.60;82.10;;;;;;5138882;27;20019;-38
2021/05/15 03:49:17;;;;;;;14.82;8.70;;;14.60;82.20;;;;;;5138818;27;20034;-38
2021/05/15 03:51:43;;;;;;;14.95;8.55;;;14.70;82.20;;;;;;5139101;27;20027;-39
2021/05/15 03:54:09;;;;;;;14.63;9.02;;;14.70;82.30;;;;;;5139064;27;20406;-38
2021/05/15 03:56:35;;;;;;;11.88;8.88;;;14.70;82.30;;;;;;5138809;27;20490;-38
2021/05/15 03:59:01;;;;;;;12.93;8.90;;;14.70;82.30;;;;;;5138944;27;20062;-38
2021/05/15 04:01:27;;;;;;;11.02;8.35;;;14.80;82.30;;;;;;5138257;27;20118;-38
2021/05/15 04:03:52;;;;;;;12.60;9.02;;;14.80;82.20;;;;;;5138751;27;20450;-38
2021/05/15 04:06:18;;;;;;;12.20;8.60;;;14.90;82.10;;;;;;5138288;27;20031;-38
2021/05/15 04:08:44;;;;;;;11.30;8.05;;;14.90;82.00;;;;;;5138436;27;20295;-39
2021/05/15 04:11:10;;;;;;;11.40;7.88;;;14.90;81.90;;;;;;5138205;27;20429;-38
2021/05/15 04:16:12;;;;;;;13.75;8.85;;;15.00;81.80;;;;;;5138669;27;20027;-38
2021/05/15 04:18:38;;;;;;;12.50;8.05;;;15.10;81.90;;;;;;5138598;27;20053;-38
2021/05/15 04:21:03;;;;;;;11.95;7.90;;;15.10;81.70;;;;;;5138021;27;20035;-38
2021/05/15 04:23:29;;;;;;;13.10;8.13;;;15.20;81.50;;;;;;5138316;27;20031;-38
2021/05/15 04:25:55;;;;;;;11.35;7.90;;;15.20;81.30;;;;;;5138212;27;20070;-38
2021/05/15 04:28:22;;;;;;;11.70;8.00;;;15.30;81.10;;;;;;5137779;27;20057;-38
2021/05/15 04:30:48;;;;;;;12.40;7.00;;;15.30;81.00;;;;;;5138041;27;20050;-39
2021/05/15 04:33:13;;;;;;;13.18;7.25;;;15.40;80.90;;;;;;5137976;27;20307;-38
2021/05/15 04:35:39;;;;;;;18.40;8.25;;;15.50;80.90;;;;;;5137918;27;20040;-38
2021/05/15 04:38:06;;;;;;;14.40;7.95;;;15.60;80.60;;;;;;5137537;27;20051;-39
2021/05/15 04:40:34;;;;;;;12.40;8.15;;;15.60;80.20;;;;;;5138182;27;20035;-38
2021/05/15 04:43:00;;;;;;;16.48;8.45;;;15.70;79.90;;;;;;5137378;27;20027;-39
2021/05/15 04:45:28;;;;;;;13.30;7.30;;;15.70;79.80;;;;;;5137770;27;20042;-38
2021/05/15 04:47:54;;;;;;;11.38;7.53;;;15.80;79.60;;;;;;5137174;27;20058;-39
2021/05/15 04:50:20;;;;;;;15.65;7.95;;;15.80;79.40;;;;;;5119557;27;20125;-38
2021/05/15 04:52:45;;;;;;;12.60;7.80;;;15.90;79.20;;;;;;5137532;27;20049;-38
2021/05/15 04:55:11;;;;;;;13.57;8.43;;;16.00;79.00;;;;;;5137768;27;20034;-38
2021/05/15 04:57:37;;;;;;;8.98;6.82;;;16.00;78.90;;;;;;5137484;27;20027;-38
2021/05/15 05:00:04;;;;;;;10.05;7.38;;;16.10;78.80;;;;;;5137553;27;20031;-38
2021/05/15 05:02:29;;;;;;;12.23;7.05;;;16.20;78.60;;;;;;5137038;27;20027;-38
2021/05/15 05:04:55;;;;;;;11.25;7.85;;;16.30;78.60;;;;;;5137659;27;20042;-38
2021/05/15 05:07:21;;;;;;;10.90;7.28;;;16.30;78.20;;;;;;5137585;27;20023;-38
2021/05/15 05:09:46;;;;;;;13.85;7.70;;;16.40;77.80;;;;;;5137466;27;20034;-38
2021/05/15 05:12:12;;;;;;;10.32;6.15;;;16.40;77.20;;;;;;5118735;27;20027;-38
2021/05/15 05:14:38;;;;;;;10.80;5.90;;;16.50;76.90;;;;;;5137527;27;20110;-38
2021/05/15 05:17:05;;;;;;;12.52;5.88;;;16.60;76.60;;;;;;5137002;27;20019;-38
2021/05/15 05:19:31;;;;;;;11.63;5.90;;;16.70;76.20;;;;;;5137258;27;20398;-38
2021/05/15 05:21:59;;;;;;;8.98;4.97;;;16.70;75.70;;;;;;5136915;27;20031;-38
2021/05/15 05:24:24;;;;;;;13.52;4.50;;;16.80;75.20;;;;;;5137224;27;20023;-38
2021/05/15 05:26:50;;;;;;;11.02;4.63;;;16.90;74.40;;;;;;5136515;27;20421;-39
2021/05/15 05:29:16;;;;;;;10.52;3.88;;;16.90;74.40;;;;;;5136752;27;20031;-38
2021/05/15 05:31:44;;;;;;;7.15;4.53;;;17.00;74.10;;;;;;5136549;27;20023;-38
2021/05/15 05:34:10;;;;;;;5.18;3.55;;;17.10;73.90;;;;;;5136772;27;20058;-38
2021/05/15 05:36:37;;;;;;;13.75;7.22;;;17.20;73.00;;;;;;5136296;27;20113;-38
2021/05/15 05:39:10;;;;;;;8.93;6.18;;;17.30;72.80;;;;;;5136653;27;20106;-38
2021/05/15 05:41:36;;;;;;;10.05;3.65;;;17.30;72.50;;;;;;5136406;27;20042;-39
2021/05/15 05:44:03;;;;;;;9.63;3.42;;;17.40;71.20;;;;;;5136730;27;20076;-38
2021/05/15 05:46:29;;;;;;;4.15;2.80;;;17.50;71.00;;;;;;5135927;27;20050;-38
2021/05/15 05:48:55;;;;;;;3.85;2.70;;;17.60;70.30;;;;;;5136427;27;20023;-40
2021/05/15 05:51:20;;;;;;;5.45;2.70;;;17.60;69.80;;;;;;5136577;27;20087;-38
2021/05/15 05:53:46;;;;;;;12.38;6.05;;;17.70;69.40;;;;;;5136341;27;20060;-40
2021/05/15 05:56:12;;;;;;;5.78;2.92;;;17.80;69.20;;;;;;5136532;27;20030;-38
2021/05/15 05:58:37;;;;;;;4.35;2.85;;;17.90;68.60;;;;;;5136141;27;20323;-39
2021/05/15 06:01:03;;;;;;;4.32;2.60;;;17.90;68.60;;;;;;5136029;28;20031;-38
2021/05/15 06:03:29;;;;;;;6.15;2.80;;;18.00;68.10;;;;;;5135548;27;20631;-40
2021/05/15 06:05:54;;;;;;;2.80;2.40;;;18.10;67.90;;;;;;5136269;28;20037;-38
2021/05/15 06:08:20;;;;;;;3.00;2.00;;;18.20;67.10;;;;;;5135961;28;20066;-38
2021/05/15 06:10:47;;;;;;;4.80;2.40;;;18.20;66.90;;;;;;5136402;28;20030;-38
2021/05/15 06:13:18;;;;;;;5.20;2.38;;;18.30;66.60;;;;;;5135641;28;20106;-38
2021/05/15 06:15:44;;;;;;;7.40;2.50;;;18.40;66.40;;;;;;5136178;28;20326;-38
2021/05/15 06:18:10;;;;;;;5.70;2.78;;;18.40;66.30;;;;;;5135917;28;20430;-38
2021/05/15 06:20:36;;;;;;;4.20;2.90;;;18.50;66.10;;;;;;5136056;28;20091;-38
2021/05/15 06:23:02;;;;;;;4.57;2.55;;;18.60;65.90;;;;;;5130207;28;20039;-38
2021/05/15 06:25:28;;;;;;;5.82;2.65;;;18.70;65.50;;;;;;5136189;28;20059;-38
2021/05/15 06:27:53;;;;;;;4.72;2.35;;;18.70;65.30;;;;;;5131594;28;20507;-38
2021/05/15 06:30:19;;;;;;;7.70;3.20;;;18.80;65.60;;;;;;5117904;28;20039;-38
2021/05/15 06:32:46;;;;;;;6.53;2.90;;;18.80;65.20;;;;;;5135290;28;20272;-38
2021/05/15 06:35:12;;;;;;;5.97;4.05;;;18.90;64.60;;;;;;5136086;28;20096;-38
2021/05/15 06:37:38;;;;;;;6.97;2.50;;;19.00;64.10;;;;;;5134887;28;20446;-38
2021/05/15 06:40:05;;;;;;;4.80;2.05;;;19.10;63.70;;;;;;5136049;28;20027;-38
2021/05/15 06:42:31;;;;;;;10.15;2.42;;;19.10;63.90;;;;;;5134494;28;20038;-38
2021/05/15 06:44:57;;;;;;;3.65;2.13;;;19.20;63.20;;;;;;5136130;28;20031;-38
2021/05/15 06:47:22;;;;;;;2.97;1.90;;;19.30;62.70;;;;;;5135024;28;20424;-38
2021/05/15 06:49:49;;;;;;;8.73;2.70;;;19.30;62.10;;;;;;5134469;28;20092;-39
2021/05/15 06:52:15;;;;;;;6.18;2.65;;;19.40;62.00;;;;;;5134418;28;20011;-38
2021/05/15 06:54:41;;;;;;;3.78;2.72;;;19.50;61.80;;;;;;5135497;28;20417;-38
2021/05/15 06:57:07;;;;;;;5.43;2.45;;;19.50;60.70;;;;;;5134831;28;20027;-38
2021/05/15 06:59:33;;;;;;;3.28;1.80;;;19.60;60.20;;;;;;5135270;28;20031;-39
2021/05/15 07:02:00;;;;;;;6.13;1.85;;;19.70;60.60;;;;;;5134947;28;20038;-38
2021/05/15 07:04:26;;;;;;;3.63;2.00;;;19.70;60.00;;;;;;5135219;28;20426;-38
2021/05/15 07:06:52;;;;;;;4.03;1.90;;;19.80;59.80;;;;;;5134676;28;20031;-38
2021/05/15 07:09:17;;;;;;;2.70;1.70;;;19.80;59.40;;;;;;5135677;28;20041;-38
2021/05/15 07:11:43;;;;;;;3.85;1.67;;;19.90;59.70;;;;;;5134759;28;20027;-38
2021/05/15 07:14:09;;;;;;;4.32;2.10;;;19.90;59.50;;;;;;5135546;28;20038;-39
2021/05/15 07:16:35;;;;;;;2.03;1.70;;;19.90;59.30;;;;;;5137230;27;20413;-38
2021/05/15 07:19:00;;;;;;;2.60;1.60;;;20.00;59.00;;;;;;5138908;27;20034;-38
2021/05/15 07:21:26;;;;;;;2.03;1.48;;;20.00;59.10;;;;;;5138435;27;20298;-38
2021/05/15 07:23:52;;;;;;;3.22;2.15;;;20.10;59.20;;;;;;5138970;27;20027;-38
2021/05/15 07:26:18;;;;;;;7.43;1.70;;;20.10;59.30;;;;;;5136361;27;20345;-38
2021/05/15 07:28:43;;;;;;;2.08;1.73;;;20.20;58.90;;;;;;5138893;27;20037;-39
2021/05/15 07:31:09;;;;;;;8.82;2.08;;;20.30;59.00;;;;;;5136804;27;20414;-38
2021/05/15 07:33:35;;;;;;;10.05;2.55;;;20.30;58.70;;;;;;5138165;27;20039;-38
2021/05/15 07:36:01;;;;;;;3.17;1.58;;;20.40;58.00;;;;;;5138769;27;20027;-38
2021/05/15 07:38:27;;;;;;;5.95;2.60;;;20.40;57.70;;;;;;5138230;27;20122;-38
2021/05/15 07:40:54;;;;;;;3.42;1.73;;;20.40;58.10;;;;;;5138260;27;20038;-38
2021/05/15 07:43:25;;;;;;;7.72;2.20;;;20.50;58.10;;;;;;5137754;27;20038;-38
2021/05/15 07:45:52;;;;;;;11.38;2.38;;;20.50;57.70;;;;;;5138458;27;20303;-38
2021/05/15 07:48:18;;;;;;;3.75;1.55;;;20.60;57.60;;;;;;5137553;27;20023;-38
2021/05/15 07:50:43;;;;;;;3.33;1.42;;;20.70;57.60;;;;;;5138829;27;20034;-38
2021/05/15 07:53:09;;;;;;;9.10;2.03;;;20.70;56.90;;;;;;5137440;27;20027;-38
2021/05/15 07:55:35;;;;;;;2.38;1.60;;;20.70;57.30;;;;;;5138686;27;20373;-38
2021/05/15 07:58:00;;;;;;;11.43;2.47;;;20.80;57.30;;;;;;5137428;27;20098;-39
2021/05/15 08:00:26;;;;;;;4.55;2.20;;;20.90;56.90;;;;;;5138376;27;20475;-38
2021/05/15 08:02:52;;;;;;;1.80;1.42;;;21.00;57.10;;;;;;5137006;27;20023;-39
2021/05/15 08:05:18;;;;;;;3.25;1.77;;;21.10;56.70;;;;;;5136839;27;20031;-38
2021/05/15 08:07:43;;;;;;;2.53;1.40;;;21.10;56.20;;;;;;5137309;27;20110;-38
2021/05/15 08:10:10;;;;;;;2.30;1.40;;;21.20;55.40;;;;;;5136447;27;20106;-38
2021/05/15 08:12:36;;;;;;;1.48;1.33;;;21.30;55.50;;;;;;5137242;27;20116;-39
2021/05/15 08:15:05;;;;;;;1.98;1.15;;;21.30;55.30;;;;;;5137981;27;20080;-39
2021/05/15 08:17:33;;;;;;;2.25;1.20;;;21.30;54.20;;;;;;5137721;27;20075;-38
2021/05/15 08:20:00;;;;;;;1.58;1.13;;;21.40;53.50;;;;;;5138100;27;20039;-38
2021/05/15 08:22:26;;;;;;;2.78;1.17;;;21.40;53.50;;;;;;5136833;27;20075;-38
2021/05/15 08:24:52;;;;;;;1.20;1.02;;;21.50;53.30;;;;;;5137653;27;20027;-38
2021/05/15 08:27:17;;;;;;;6.72;1.60;;;21.50;53.00;;;;;;5136277;27;20026;-38
2021/05/15 08:29:43;;;;;;;2.65;1.20;;;21.50;53.00;;;;;;5137916;27;20111;-38
2021/05/15 08:32:09;;;;;;;4.15;1.38;;;21.50;52.70;;;;;;5136865;27;20015;-38
2021/05/15 08:34:34;;;;;;;5.97;1.92;;;21.60;53.10;;;;;;5137581;27;20084;-39
2021/05/15 08:37:00;;;;;;;3.88;1.58;;;21.70;53.00;;;;;;5136615;27;20116;-38
2021/05/15 08:39:26;;;;;;;2.40;1.15;;;21.80;52.50;;;;;;5137666;27;20454;-38
2021/05/15 08:41:51;;;;;;;1.42;1.33;;;21.90;51.80;;;;;;5136795;27;20336;-39
2021/05/15 08:44:23;;;;;;;5.57;1.73;;;21.90;51.60;;;;;;5137064;27;20023;-38
2021/05/15 08:46:51;;;;;;;3.35;1.30;;;22.00;51.20;;;;;;5136320;27;20019;-38
2021/05/15 08:49:20;;;;;;;13.82;1.98;;;22.10;50.80;;;;;;5137192;27;20027;-38
2021/05/15 08:51:47;;;;;;;4.10;1.45;;;22.10;50.60;;;;;;5136390;27;20031;-38
2021/05/15 08:54:14;;;;;;;6.03;1.38;;;22.20;50.00;;;;;;5137070;27;20075;-38
2021/05/15 08:56:40;;;;;;;1.52;1.00;;;22.20;49.80;;;;;;5136558;27;20035;-38
2021/05/15 08:59:06;;;;;;;2.40;1.20;;;22.30;49.80;;;;;;5136857;27;20034;-38
2021/05/15 09:01:32;;;;;;;4.53;1.20;;;22.30;49.40;;;;;;5136193;27;20410;-38
2021/05/15 09:03:57;;;;;;;1.45;1.35;;;22.30;49.00;;;;;;5136866;27;20031;-38
2021/05/15 09:06:23;;;;;;;7.20;1.50;;;22.30;49.00;;;;;;5136555;27;20027;-38
2021/05/15 09:08:49;;;;;;;18.00;1.90;;;22.30;49.10;;;;;;5136755;27;20031;-38
2021/05/15 09:11:15;;;;;;;11.57;8.15;;;22.40;49.60;;;;;;5136654;27;20030;-39
2021/05/15 09:13:50;;;;;;;6.88;2.28;;;22.40;49.20;;;;;;5136805;27;20023;-39
2021/05/15 09:16:15;;;;;;;4.85;1.38;;;22.50;48.80;;;;;;5136194;27;20072;-39
2021/05/15 09:18:41;;;;;;;2.22;1.50;;;22.50;48.60;;;;;;5135401;27;20034;-38
2021/05/15 09:21:16;;;;;;;3.10;1.38;;;22.50;48.80;;;;;;5117830;27;20038;-38
2021/05/15 09:23:45;;;;;;;5.43;1.60;;;22.60;48.90;;;;;;5137070;27;20031;-38
2021/05/15 09:26:16;;;;;;;3.08;1.00;;;22.50;49.90;;;;;;5136757;27;20035;-38
2021/05/15 09:28:48;;;;;;;3.55;1.33;;;22.50;49.30;;;;;;5118519;27;20299;-39
2021/05/15 09:31:25;;;;;;;4.55;1.20;;;22.60;49.00;;;;;;5136655;27;20032;-39
2021/05/15 09:33:55;;;;;;;8.55;1.75;;;22.70;48.40;;;;;;5136442;27;20111;-39
2021/05/15 09:36:26;;;;;;;1.77;1.20;;;22.80;47.90;;;;;;5136865;27;20035;-38
2021/05/15 09:39:20;;;;;;;2.22;0.75;;;23.00;47.70;;;;;;5135784;27;20215;-38
2021/05/15 09:41:55;;;;;;;3.63;1.40;;;23.10;47.10;;;;;;5133123;27;20057;-38
2021/05/15 09:44:23;;;;;;;1.23;0.90;;;23.20;47.60;;;;;;5135948;27;20042;-39
2021/05/15 09:46:49;;;;;;;10.27;2.42;;;23.30;46.60;;;;;;5136246;27;20031;-38
2021/05/15 09:49:23;;;;;;;2.35;1.27;;;23.40;46.30;;;;;;5136805;27;20030;-38
2021/05/15 09:52:00;;;;;;;3.97;1.95;;;23.50;45.50;;;;;;5136334;27;20478;-38
2021/05/15 09:54:28;;;;;;;3.47;1.30;;;23.60;45.40;;;;;;5136997;27;20296;-38
2021/05/15 09:56:56;;;;;;;6.97;1.58;;;23.70;45.20;;;;;;5136263;27;20055;-38
2021/05/15 09:59:51;;;;;;;2.28;0.98;;;23.80;44.90;;;;;;5136413;27;20030;-38
2021/05/15 10:02:18;;;;;;;2.30;1.60;;;23.90;44.50;;;;;;5133271;28;20039;-38
2021/05/15 10:04:46;;;;;;;3.05;1.02;;;23.90;45.00;;;;;;5136522;28;20028;-38
2021/05/15 10:07:21;;;;;;;3.70;0.85;;;24.00;44.30;;;;;;5136227;28;20056;-39
2021/05/15 10:09:47;;;;;;;1.38;1.00;;;24.10;43.30;;;;;;5136298;28;20028;-38
2021/05/15 10:12:12;;;;;;;1.95;0.93;;;24.10;43.70;;;;;;5135905;28;20472;-38
2021/05/15 10:14:38;;;;;;;3.38;1.08;;;24.20;42.80;;;;;;5136755;28;20031;-38
2021/05/15 10:17:04;;;;;;;1.17;0.75;;;24.30;43.20;;;;;;5135930;28;20031;-39
2021/05/15 10:19:30;;;;;;;0.80;0.80;;;24.30;42.90;;;;;;5135943;28;20087;-39
2021/05/15 10:21:57;;;;;;;3.88;1.20;;;24.30;43.30;;;;;;5135625;28;20042;-38
2021/05/15 10:24:32;;;;;;;4.78;2.08;;;24.30;43.60;;;;;;5136082;28;20042;-38
2021/05/15 10:27:10;;;;;;;0.88;0.85;;;24.40;43.70;;;;;;5136138;28;20107;-38
2021/05/15 10:29:51;;;;;;;1.88;0.75;;;24.40;42.70;;;;;;5136316;28;20031;-38
2021/05/15 10:32:23;;;;;;;6.03;1.80;;;24.40;42.00;;;;;;5135738;28;20054;-38
2021/05/15 10:34:58;;;;;;;0.70;0.65;;;24.40;42.70;;;;;;5136256;28;20028;-38
2021/05/15 10:37:24;;;;;;;3.72;1.08;;;24.40;42.40;;;;;;5135575;28;20418;-38
2021/05/15 10:39:50;;;;;;;3.35;1.42;;;24.40;42.40;;;;;;5117722;28;20114;-38
2021/05/15 10:42:32;;;;;;;3.05;0.65;;;24.50;42.60;;;;;;5135606;28;20111;-38
2021/05/15 10:44:59;;;;;;;4.03;1.02;;;24.60;42.30;;;;;;5136169;28;20056;-39
2021/05/15 10:47:25;;;;;;;27.25;3.08;;;24.60;42.20;;;;;;5135473;28;20030;-39
2021/05/15 10:49:51;;;;;;;4.82;1.05;;;24.60;42.40;;;;;;5137290;27;20027;-39
2021/05/15 10:52:22;;;;;;;3.42;0.95;;;24.70;42.30;;;;;;5134643;27;20314;-39
2021/05/15 10:54:59;;;;;;;3.13;1.15;;;24.80;41.80;;;;;;5136638;27;20027;-38
2021/05/15 10:57:29;;;;;;;4.07;1.08;;;24.80;41.60;;;;;;5138062;27;20087;-38
2021/05/15 10:59:59;;;;;;;4.80;2.70;;;24.90;41.40;;;;;;5138897;27;20046;-39
2021/05/15 11:02:38;;;;;;;;;;;25.00;40.80;;;;;;5139411;27;20027;-39
2021/05/15 11:05:11;;;;;;;9.00;2.65;;;25.10;41.00;;;;;;5139397;27;20242;-38
2021/05/15 11:07:40;;;;;;;0.63;0.63;;;25.20;39.10;;;;;;5139245;27;20030;-38
2021/05/15 11:10:09;;;;;;;1.23;0.73;;;25.40;38.80;;;;;;5120659;27;20352;-38
2021/05/15 11:12:52;;;;;;;0.40;0.40;;;25.50;39.10;;;;;;5138923;27;20042;-39
2021/05/15 11:15:20;;;;;;;2.00;0.65;;;25.70;39.40;;;;;;5138780;27;20040;-38
2021/05/15 11:18:03;;;;;;;6.68;0.55;;;25.90;38.40;;;;;;5139003;27;20027;-38
2021/05/15 11:20:47;;;;;;;2.10;0.50;;;26.10;37.30;;;;;;5138758;27;20045;-41
2021/05/15 11:23:16;;;;;;;3.72;0.73;;;26.10;36.80;;;;;;5138700;27;20076;-38
2021/05/15 11:26:02;;;;;;;3.42;1.20;;;26.20;36.40;;;;;;5138703;27;20027;-38
2021/05/15 11:28:29;;;;;;;1.13;0.88;;;26.30;36.00;;;;;;5138368;27;20605;-38
2021/05/15 11:30:55;;;;;;;2.88;1.05;;;26.30;36.50;;;;;;5138719;27;20027;-39
2021/05/15 11:33:22;;;;;;;0.68;0.40;;;26.30;36.10;;;;;;5138412;27;20015;-38
2021/05/15 11:35:53;;;;;;;1.75;0.60;;;26.30;36.10;;;;;;5138726;27;20403;-38
2021/05/15 11:38:20;;;;;;;0.60;0.50;;;26.30;36.50;;;;;;5138301;27;20051;-38
2021/05/15 11:40:46;;;;;;;3.22;1.15;;;26.30;36.90;;;;;;5138552;27;20469;-38
2021/05/15 11:43:41;;;;;;;1.17;0.80;;;26.30;36.90;;;;;;5138651;27;20031;-39
2021/05/15 11:46:10;;;;;;;4.00;0.65;;;26.40;36.50;;;;;;5116212;27;20053;-38
2021/05/15 11:48:38;;;;;;;2.83;0.85;;;26.50;35.80;;;;;;5138657;27;20110;-38
2021/05/15 11:51:14;;;;;;;0.63;0.50;;;26.60;35.70;;;;;;5138476;27;20035;-38
2021/05/15 11:53:40;;;;;;;4.47;1.50;;;26.60;35.90;;;;;;5138879;27;20033;-38
2021/05/15 11:56:14;;;;;;;3.08;0.70;;;26.70;35.30;;;;;;5119982;27;20023;-38
2021/05/15 11:58:57;;;;;;;6.10;1.10;;;26.80;34.80;;;;;;5138796;27;20038;-39
2021/05/15 12:01:29;;;;;;;6.78;1.10;;;27.00;34.60;;;;;;5137276;27;20031;-39
2021/05/15 12:04:14;;;;;;;8.75;1.45;;;27.20;35.00;;;;;;5138641;27;20035;-38
2021/05/15 12:06:40;;;;;;;0.70;0.70;;;27.40;34.60;;;;;;5137812;27;20039;-39
2021/05/15 12:09:28;;;;;;;1.33;1.10;;;27.60;34.90;;;;;;5138301;27;20019;-40
2021/05/15 12:12:06;;;;;;;0.60;0.60;;;27.90;35.30;;;;;;5136333;27;20084;-39
2021/05/15 12:14:32;;;;;;;1.73;0.70;;;28.10;35.40;;;;;;5138142;27;20311;-39
2021/05/15 12:17:24;;;;;;;1.30;0.70;;;28.20;34.60;;;;;;5137867;27;20043;-39
2021/05/15 12:19:54;;;;;;;0.65;0.60;;;28.40;33.40;;;;;;5138153;27;20038;-39
2021/05/15 12:22:25;;;;;;;1.42;0.70;;;28.50;33.30;;;;;;5137590;27;20363;-39
2021/05/15 12:24:51;;;;;;;4.03;1.00;;;28.70;33.40;;;;;;5138299;27;20023;-39
2021/05/15 12:27:21;;;;;;;5.53;2.33;;;28.80;33.30;;;;;;5137456;27;20026;-39
2021/05/15 12:30:05;;;;;;;2.83;0.70;;;29.00;33.40;;;;;;5137540;27;20494;-39
2021/05/15 12:32:35;;;;;;;1.75;0.60;;;29.20;32.40;;;;;;5136912;27;20051;-38
2021/05/15 12:35:06;;;;;;;0.60;0.60;;;29.30;32.40;;;;;;5137558;27;20030;-39
2021/05/15 12:37:36;;;;;;;1.77;0.73;;;29.40;32.30;;;;;;5136856;27;20076;-39
2021/05/15 12:40:09;;;;;;;;;;;29.60;32.60;;;;;;5137839;27;20051;-39
2021/05/15 12:42:35;;;;;;;3.15;0.73;;;29.70;33.30;;;;;;5137216;27;19904;-38
2021/05/15 12:45:10;;;;;;;3.63;1.10;;;29.80;32.80;;;;;;5137437;27;20045;-39
2021/05/15 12:47:36;;;;;;;2.92;1.00;;;29.90;32.60;;;;;;5137105;27;20030;-37
2021/05/15 12:50:14;;;;;;;2.30;1.50;;;29.90;32.00;;;;;;5137575;27;20122;-37